Time;durP1;ratioP1;P1;durP2;ratioP2;P2;SDS_P1;SDS_P2;PMS_P1;PMS_P2;Temp;Humidity;BMP_temperature;BMP_pressure;BME280_temperature;BME280_humidity;BME280_pressure;Samples;Min_cycle;Max_cycle;Signal;HPM_P1;HPM_P2
2021/12/29 00:02:03;;;;;;;6.40;4.83;;;;;;;5.11;44.98;99534.85;1768378;78;21079;-63
2021/12/29 00:04:31;;;;;;;6.67;4.42;;;;;;;5.12;44.96;99535.21;1766067;80;21218;-63
2021/12/29 00:06:59;;;;;;;5.90;4.25;;;;;;;5.11;44.96;99533.04;1763535;81;21058;-63
2021/12/29 00:09:27;;;;;;;5.83;4.55;;;;;;;5.11;44.93;99532.22;1742142;81;21093;-63
2021/12/29 00:11:53;;;;;;;7.10;4.70;;;;;;;5.11;44.93;99536.17;1744423;81;21515;-63
2021/12/29 00:14:20;;;;;;;4.92;4.17;;;;;;;5.11;44.96;99541.44;1746254;80;21038;-63
2021/12/29 00:16:46;;;;;;;5.47;4.33;;;;;;;5.11;44.92;99536.17;1742180;81;21069;-62
2021/12/29 00:19:12;;;;;;;5.28;4.35;;;;;;;5.11;44.91;99536.17;1742639;81;21066;-64
2021/12/29 00:21:39;;;;;;;7.37;5.15;;;;;;;5.11;44.93;99535.67;1759264;80;21119;-63
2021/12/29 00:24:06;;;;;;;5.12;3.90;;;;;;;5.12;44.90;99532.58;1776137;80;21490;-63
2021/12/29 00:26:33;;;;;;;6.62;4.97;;;;;;;5.08;44.90;99527.22;1759010;80;21091;-63
2021/12/29 00:29:00;;;;;;;4.92;4.10;;;;;;;5.11;44.88;99532.22;1781653;79;21052;-63
2021/12/29 00:31:28;;;;;;;5.35;4.22;;;;;;;5.10;44.88;99527.94;1761111;80;21100;-63
2021/12/29 00:34:02;;;;;;;6.55;4.28;;;;;;;5.11;44.89;99528.27;1759536;79;21567;-64
2021/12/29 00:36:49;;;;;;;6.60;4.08;;;;;;;5.09;44.86;99527.08;1762788;81;20986;-65
2021/12/29 00:39:26;;;;;;;7.45;4.53;;;;;;;5.08;44.88;99522.80;1676817;85;21545;-62
2021/12/29 00:41:56;;;;;;;4.50;3.87;;;;;;;5.08;44.87;99529.84;1713285;81;21173;-63
2021/12/29 00:44:22;;;;;;;5.80;4.30;;;;;;;5.08;44.88;99524.12;1763336;79;21517;-64
2021/12/29 00:47:00;;;;;;;5.92;4.40;;;;;;;5.08;44.87;99516.68;1789775;79;21044;-64
2021/12/29 00:49:32;;;;;;;6.87;4.53;;;;;;;5.07;44.88;99517.17;1742354;81;21058;-63
2021/12/29 00:51:55;;;;;;;6.12;4.28;;;;;;;5.08;44.86;99509.64;1743049;80;21006;-63
2021/12/29 00:54:21;;;;;;;5.85;4.33;;;;;;;5.08;44.87;99502.20;1753759;80;21322;-64
2021/12/29 00:56:48;;;;;;;6.20;4.45;;;;;;;5.07;44.86;99500.06;1760413;80;21000;-63
2021/12/29 00:59:15;;;;;;;5.62;3.65;;;;;;;5.08;44.86;99492.98;1765405;80;21034;-64
2021/12/29 01:01:42;;;;;;;6.30;4.70;;;;;;;5.07;44.86;99486.89;1745249;80;21089;-63
2021/12/29 01:04:08;;;;;;;5.10;3.92;;;;;;;5.07;44.84;99484.27;1784412;80;21096;-64
2021/12/29 01:06:35;;;;;;;10.18;4.47;;;;;;;5.07;44.84;99485.58;1780177;80;21119;-64
2021/12/29 01:09:01;;;;;;;5.97;4.53;;;;;;;5.07;44.84;99479.48;1785648;80;21000;-65
2021/12/29 01:11:28;;;;;;;6.30;3.92;;;;;;;5.08;44.82;99477.19;1770271;79;21456;-64
2021/12/29 01:13:54;;;;;;;4.53;3.75;;;;;;;5.08;44.79;99471.45;1744252;80;21059;-63
2021/12/29 01:19:18;;;;;;;4.28;3.60;;;;;;;5.09;44.79;99460.43;1757401;80;21041;-64
2021/12/29 01:21:48;;;;;;;6.00;4.12;;;;;;;5.08;44.76;99453.02;1744115;80;21009;-64
2021/12/29 01:24:14;;;;;;;4.45;3.62;;;;;;;5.07;44.77;99456.61;1745169;80;21044;-64
2021/12/29 01:26:43;;;;;;;7.00;4.10;;;;;;;5.07;44.79;99458.42;1766993;80;21003;-64
2021/12/29 01:29:11;;;;;;;5.60;4.00;;;;;;;5.05;44.79;99457.24;1756463;80;21014;-65
2021/12/29 01:31:41;;;;;;;4.12;3.65;;;;;;;5.06;44.79;99455.44;1758437;80;21000;-66
2021/12/29 01:34:07;;;;;;;5.25;3.70;;;;;;;5.06;44.79;99460.23;1754844;80;21489;-64
2021/12/29 01:36:37;;;;;;;5.53;4.08;;;;;;;5.06;44.78;99464.64;1754156;79;21022;-64
2021/12/29 01:39:06;;;;;;;6.20;4.47;;;;;;;5.07;44.77;99472.41;1761621;80;20978;-64
2021/12/29 01:41:32;;;;;;;5.67;3.92;;;;;;;5.06;44.79;99469.91;1777806;80;21095;-64
2021/12/29 01:43:59;;;;;;;4.92;3.42;;;;;;;5.06;44.77;99468.59;1761200;80;21150;-63
2021/12/29 01:46:25;;;;;;;5.33;4.17;;;;;;;5.06;44.75;99476.03;1763491;80;21536;-64
2021/12/29 01:48:52;;;;;;;5.03;3.98;;;;;;;5.06;44.76;99472.08;1767066;80;21076;-64
2021/12/29 01:51:20;;;;;;;4.97;3.95;;;;;;;5.07;44.74;99476.36;1776149;80;21470;-64
2021/12/29 01:54:00;;;;;;;4.60;4.15;;;;;;;5.08;44.72;99477.19;1751847;80;21029;-64
2021/12/29 01:56:15;;;;;;;4.42;3.47;;;;;;;5.07;44.72;99476.86;1749639;80;21148;-65
2021/12/29 01:58:41;;;;;;;5.95;3.95;;;;;;;5.07;44.74;99469.78;1750801;79;21538;-64
2021/12/29 02:01:08;;;;;;;6.45;4.30;;;;;;;5.07;44.72;99465.83;1764232;79;21010;-64
2021/12/29 02:03:34;;;;;;;4.87;4.08;;;;;;;5.07;44.71;99463.69;1771793;80;21034;-64
2021/12/29 02:06:01;;;;;;;4.47;3.90;;;;;;;5.06;44.72;99457.60;1748231;80;21134;-63
2021/12/29 02:08:27;;;;;;;5.28;3.77;;;;;;;5.06;44.69;99456.28;1770120;79;22075;-63
2021/12/29 02:10:57;;;;;;;5.20;3.40;;;;;;;5.06;44.70;99456.28;1771193;80;21039;-64
2021/12/29 02:13:23;;;;;;;4.53;3.50;;;;;;;5.07;44.69;99452.66;1756672;80;21033;-64
2021/12/29 02:15:50;;;;;;;4.50;3.35;;;;;;;5.06;44.68;99437.86;1762540;80;21062;-64
2021/12/29 02:18:19;;;;;;;6.45;4.55;;;;;;;5.07;44.69;99440.81;1765706;80;21014;-65
2021/12/29 02:20:50;;;;;;;4.53;4.10;;;;;;;5.05;44.65;99434.03;1764080;80;21824;-65
2021/12/29 02:23:27;;;;;;;5.97;3.95;;;;;;;5.08;44.66;99431.96;1747091;80;21066;-66
2021/12/29 02:25:54;;;;;;;5.85;3.58;;;;;;;5.08;44.63;99435.05;1772523;80;21085;-66
2021/12/29 02:28:35;;;;;;;5.00;4.22;;;;;;;5.08;44.64;99431.11;1757443;80;21034;-65
2021/12/29 02:31:03;;;;;;;5.53;3.70;;;;;;;5.09;44.62;99436.73;1764305;79;21818;-65
2021/12/29 02:33:31;;;;;;;4.47;3.40;;;;;;;5.08;44.62;99436.37;1757804;80;21550;-65
2021/12/29 02:35:59;;;;;;;5.33;4.40;;;;;;;5.07;44.62;99432.09;1764048;79;21017;-65
2021/12/29 02:38:33;;;;;;;4.97;3.72;;;;;;;5.07;44.63;99428.14;1746922;80;20986;-64
2021/12/29 02:41:04;;;;;;;4.90;3.85;;;;;;;5.07;44.63;99426.83;1751936;79;21087;-65
2021/12/29 02:43:36;;;;;;;4.80;3.70;;;;;;;5.07;44.62;99421.56;1760836;80;21058;-66
2021/12/29 02:46:00;;;;;;;4.47;3.55;;;;;;;5.07;44.60;99421.06;1765599;80;22010;-66
2021/12/29 02:48:34;;;;;;;4.92;3.75;;;;;;;5.05;44.62;99412.48;1755366;80;21037;-66
2021/12/29 02:51:01;;;;;;;5.47;3.92;;;;;;;5.06;44.61;99401.45;1757226;79;21108;-64
2021/12/29 02:53:28;;;;;;;4.17;3.60;;;;;;;5.05;44.60;99400.63;1747021;80;21509;-65
2021/12/29 02:55:54;;;;;;;4.30;3.45;;;;;;;5.05;44.61;99400.63;1757221;80;21048;-64
2021/12/29 02:58:22;;;;;;;6.30;3.90;;;;;;;5.06;44.60;99400.99;1747142;80;22079;-65
2021/12/29 03:00:50;;;;;;;5.15;3.70;;;;;;;5.06;44.61;99413.30;1759088;80;21521;-65
2021/12/29 03:03:18;;;;;;;4.53;3.37;;;;;;;5.05;44.58;99407.22;1768606;80;21082;-64
2021/12/29 03:05:45;;;;;;;5.33;4.08;;;;;;;5.06;44.60;99406.72;1749615;80;21097;-64
2021/12/29 03:08:13;;;;;;;4.70;3.62;;;;;;;5.05;44.57;99411.16;1758483;79;21627;-65
2021/12/29 03:10:41;;;;;;;4.10;3.42;;;;;;;5.04;44.59;99409.52;1756993;80;22253;-65
2021/12/29 03:13:08;;;;;;;4.47;3.50;;;;;;;5.05;44.57;99407.71;1750816;80;21052;-64
2021/12/29 03:15:37;;;;;;;4.45;3.58;;;;;;;5.06;44.58;99413.30;1751281;79;21584;-65
2021/12/29 03:18:04;;;;;;;4.30;3.15;;;;;;;5.06;44.57;99411.98;1757239;80;21034;-65
2021/12/29 03:20:31;;;;;;;4.17;3.25;;;;;;;5.05;44.57;99409.84;1756776;80;21030;-65
2021/12/29 03:22:58;;;;;;;4.80;3.50;;;;;;;5.06;44.56;99413.30;1771030;80;21217;-65
2021/12/29 03:25:26;;;;;;;4.40;3.60;;;;;;;5.06;44.55;99409.36;1759676;80;21030;-64
2021/12/29 03:27:58;;;;;;;4.17;3.35;;;;;;;5.05;44.56;99407.71;1756250;80;21593;-64
2021/12/29 03:30:20;;;;;;;4.15;3.08;;;;;;;5.05;44.55;99403.76;1762192;80;21554;-65
2021/12/29 03:32:52;;;;;;;4.92;3.60;;;;;;;5.05;44.55;99403.27;1755348;80;21070;-65
2021/12/29 03:35:20;;;;;;;5.22;3.77;;;;;;;5.06;44.55;99401.45;1771864;80;23568;-65
2021/12/29 03:37:46;;;;;;;4.55;3.50;;;;;;;5.06;44.53;99398.82;1756815;80;21049;-65
2021/12/29 03:40:15;;;;;;;4.85;3.25;;;;;;;5.05;44.54;99401.13;1757338;80;21030;-66
2021/12/29 03:42:41;;;;;;;4.25;3.27;;;;;;;5.05;44.52;99397.17;1746988;80;21065;-64
2021/12/29 03:45:09;;;;;;;4.75;3.35;;;;;;;5.05;44.53;99395.86;1756226;80;21052;-65
2021/12/29 03:47:37;;;;;;;4.22;3.40;;;;;;;5.05;44.52;99395.86;1753940;80;21147;-65
2021/12/29 03:50:05;;;;;;;4.65;3.50;;;;;;;5.05;44.52;99395.86;1767475;80;21010;-64
2021/12/29 03:52:33;;;;;;;4.62;3.33;;;;;;;5.05;44.52;99400.63;1757677;80;21071;-65
2021/12/29 03:55:00;;;;;;;4.62;3.30;;;;;;;5.06;44.52;99396.19;1757656;79;21045;-64
2021/12/29 03:57:26;;;;;;;4.70;3.75;;;;;;;5.06;44.49;99393.55;1769094;80;21025;-64
2021/12/29 03:59:52;;;;;;;4.78;3.85;;;;;;;5.05;44.53;99395.37;1759688;80;21151;-65
2021/12/29 04:02:19;;;;;;;5.50;3.92;;;;;;;5.06;44.49;99394.88;1747470;80;21513;-65
2021/12/29 04:04:45;;;;;;;5.37;3.50;;;;;;;5.05;44.50;99390.59;1753990;79;21014;-66
2021/12/29 04:07:12;;;;;;;4.75;3.62;;;;;;;5.05;44.49;99394.05;1759790;80;21055;-64
2021/12/29 04:09:40;;;;;;;4.87;3.35;;;;;;;5.06;44.47;99392.23;1749135;80;20990;-64
2021/12/29 04:12:11;;;;;;;6.70;3.83;;;;;;;5.05;44.49;99399.31;1772118;80;21844;-65
2021/12/29 04:14:37;;;;;;;4.83;3.85;;;;;;;5.05;44.49;99397.17;1755981;79;20990;-65
2021/12/29 04:17:09;;;;;;;3.95;3.52;;;;;;;5.05;44.49;99399.31;1759426;80;21537;-64
2021/12/29 04:20:54;;;;;;;5.05;3.52;;;;;;;5.06;44.48;99404.09;1774703;79;21533;-65
2021/12/29 04:22:09;;;;;;;4.53;3.50;;;;;;;5.05;44.46;99395.86;1754176;80;21018;-65
2021/12/29 04:24:36;;;;;;;4.78;3.27;;;;;;;5.06;44.47;99402.31;1748681;80;21058;-65
2021/12/29 04:27:06;;;;;;;5.50;3.83;;;;;;;5.05;44.46;99400.63;1760420;80;21036;-65
2021/12/29 04:29:32;;;;;;;4.65;3.83;;;;;;;5.06;44.46;99394.88;1754690;79;21486;-65
2021/12/29 04:32:00;;;;;;;4.33;3.37;;;;;;;5.07;44.45;99393.91;1756741;80;21026;-66
2021/12/29 04:34:27;;;;;;;3.90;3.45;;;;;;;5.06;44.42;99395.73;1761972;80;21045;-64
2021/12/29 04:36:53;;;;;;;4.85;3.52;;;;;;;5.06;44.46;99401.45;1746969;80;21254;-66
2021/12/29 04:39:20;;;;;;;5.17;3.67;;;;;;;5.06;44.42;99400.14;1753576;80;21022;-65
2021/12/29 04:41:46;;;;;;;4.62;3.40;;;;;;;5.07;44.43;99397.38;1758690;80;21080;-65
2021/12/29 04:44:12;;;;;;;4.50;3.55;;;;;;;5.07;44.42;99396.05;1768933;80;21074;-65
2021/12/29 04:46:44;;;;;;;5.17;3.72;;;;;;;5.08;44.40;99399.05;1770193;80;21018;-65
2021/12/29 04:49:11;;;;;;;5.00;3.52;;;;;;;5.07;44.40;99398.69;1759673;80;22015;-65
2021/12/29 04:51:43;;;;;;;4.75;3.58;;;;;;;5.09;44.40;99403.82;1759223;80;21073;-65
2021/12/29 04:54:06;;;;;;;5.05;4.00;;;;;;;5.09;44.40;99394.60;1756966;80;21073;-66
2021/12/29 04:56:33;;;;;;;5.08;3.90;;;;;;;5.06;44.41;99395.73;1775814;79;21072;-68
2021/12/29 04:58:59;;;;;;;5.72;4.05;;;;;;;5.06;44.42;99397.05;1757612;80;21062;-65
2021/12/29 05:01:26;;;;;;;5.60;3.77;;;;;;;5.06;44.41;99402.31;1771488;79;21110;-65
2021/12/29 05:03:53;;;;;;;4.50;3.67;;;;;;;5.07;44.42;99405.27;1778251;80;21489;-65
2021/12/29 05:08:51;;;;;;;5.10;3.62;;;;;;;5.07;44.40;99398.69;1773760;79;21073;-64
2021/12/29 05:11:17;;;;;;;4.05;3.50;;;;;;;5.08;44.38;99398.19;1771936;80;21504;-65
2021/12/29 05:13:45;;;;;;;4.87;3.30;;;;;;;5.08;44.39;99401.68;1765543;80;21158;-65
2021/12/29 05:16:11;;;;;;;5.30;3.70;;;;;;;5.08;44.40;99402.14;1753675;80;21497;-65
2021/12/29 05:18:39;;;;;;;5.80;3.92;;;;;;;5.07;44.40;99402.64;1750272;80;21049;-65
2021/12/29 05:21:07;;;;;;;4.47;3.40;;;;;;;5.07;44.39;99400.00;1782173;79;21517;-65
2021/12/29 05:23:33;;;;;;;5.22;3.77;;;;;;;5.08;44.39;99399.52;1773309;80;21006;-66
2021/12/29 05:26:00;;;;;;;6.28;3.87;;;;;;;5.07;44.39;99397.38;1759707;79;22397;-66
2021/12/29 05:28:26;;;;;;;4.50;3.47;;;;;;;5.07;44.39;99396.05;1758780;80;21025;-65
2021/12/29 05:30:53;;;;;;;4.80;3.37;;;;;;;5.08;44.39;99397.73;1757557;80;21016;-65
2021/12/29 05:33:20;;;;;;;4.97;3.77;;;;;;;5.09;44.37;99399.87;1782482;80;21079;-66
2021/12/29 05:35:46;;;;;;;4.85;3.77;;;;;;;5.09;44.36;99404.64;1759138;80;21084;-65
2021/12/29 05:38:13;;;;;;;5.12;3.90;;;;;;;5.09;44.36;99402.01;1783584;80;21620;-65
2021/12/29 05:40:39;;;;;;;5.95;4.00;;;;;;;5.09;44.35;99397.23;1764606;79;20990;-66
2021/12/29 05:43:05;;;;;;;5.37;4.53;;;;;;;5.09;44.34;99405.95;1767114;80;21002;-66
2021/12/29 05:45:32;;;;;;;5.33;3.95;;;;;;;5.08;44.35;99401.68;1773723;80;21073;-66
2021/12/29 05:47:59;;;;;;;5.53;4.17;;;;;;;5.10;44.34;99404.18;1780682;80;21033;-65
2021/12/29 05:50:27;;;;;;;5.50;4.33;;;;;;;5.10;44.33;99402.86;1762696;80;23309;-66
2021/12/29 05:52:55;;;;;;;4.67;4.17;;;;;;;5.10;44.31;99401.05;1774844;80;21517;-66
2021/12/29 05:55:21;;;;;;;5.30;3.33;;;;;;;5.10;44.33;99397.10;1771735;80;21017;-65
2021/12/29 05:57:49;;;;;;;5.17;3.83;;;;;;;5.11;44.32;99391.34;1775608;80;21105;-66
2021/12/29 06:00:18;;;;;;;5.72;4.12;;;;;;;5.09;44.31;99395.42;1773108;80;21015;-65
2021/12/29 06:02:44;;;;;;;6.12;3.90;;;;;;;5.10;44.31;99400.23;1763842;79;21127;-64
2021/12/29 06:05:11;;;;;;;5.45;4.30;;;;;;;5.10;44.31;99404.18;1767915;79;21089;-65
2021/12/29 06:07:37;;;;;;;4.75;3.58;;;;;;;5.10;44.30;99407.63;1769879;80;21002;-65
2021/12/29 06:10:07;;;;;;;4.17;3.20;;;;;;;5.10;44.29;99408.95;1776081;80;21080;-65
2021/12/29 06:12:36;;;;;;;4.95;3.62;;;;;;;5.09;44.30;99403.33;1777344;80;21090;-65
2021/12/29 06:15:04;;;;;;;4.92;3.80;;;;;;;5.09;44.32;99402.50;1764188;79;21150;-66
2021/12/29 06:17:31;;;;;;;4.90;3.95;;;;;;;5.09;44.31;99401.19;1770058;80;21030;-65
2021/12/29 06:19:58;;;;;;;4.87;4.03;;;;;;;5.08;44.31;99401.68;1768776;79;20998;-66
2021/12/29 06:22:25;;;;;;;5.10;3.60;;;;;;;5.09;44.32;99401.19;1753477;80;21050;-64
2021/12/29 06:24:52;;;;;;;5.72;4.30;;;;;;;5.09;44.32;99395.92;1771039;79;21006;-65
2021/12/29 06:27:20;;;;;;;5.33;4.28;;;;;;;5.09;44.31;99391.48;1765739;80;21157;-65
2021/12/29 06:29:47;;;;;;;4.47;3.47;;;;;;;5.09;44.32;99385.39;1760003;80;21524;-65
2021/12/29 06:32:13;;;;;;;5.62;4.50;;;;;;;5.09;44.30;99391.97;1762456;80;21035;-64
2021/12/29 06:34:39;;;;;;;4.50;3.52;;;;;;;5.10;44.30;99396.28;1753385;80;21542;-65
2021/12/29 06:37:08;;;;;;;6.05;4.03;;;;;;;5.10;44.29;99394.96;1748676;80;21033;-67
2021/12/29 06:39:36;;;;;;;5.65;3.98;;;;;;;5.10;44.30;99397.59;1764448;80;21360;-65
2021/12/29 06:42:04;;;;;;;5.47;3.90;;;;;;;5.10;44.29;99398.91;1764904;80;21187;-65
2021/12/29 06:44:30;;;;;;;4.58;3.80;;;;;;;5.11;44.29;99403.19;1763905;80;21084;-65
2021/12/29 06:46:57;;;;;;;5.80;4.33;;;;;;;5.10;44.30;99401.55;1760672;80;21533;-65
2021/12/29 06:49:23;;;;;;;4.50;3.47;;;;;;;5.10;44.29;99405.49;1765926;79;21098;-64
2021/12/29 06:51:50;;;;;;;4.83;3.62;;;;;;;5.10;44.31;99403.69;1760074;80;21220;-62
2021/12/29 06:54:16;;;;;;;5.03;4.00;;;;;;;5.11;44.29;99407.96;1758872;80;21019;-62
2021/12/29 06:56:42;;;;;;;5.12;3.90;;;;;;;5.11;44.29;99408.45;1761924;79;21582;-63
2021/12/29 06:59:09;;;;;;;6.25;4.53;;;;;;;5.12;44.28;99406.19;1757770;80;21036;-64
2021/12/29 07:01:35;;;;;;;5.35;4.37;;;;;;;5.11;44.28;99410.59;1738958;81;21060;-64
2021/12/29 07:04:03;;;;;;;5.85;3.67;;;;;;;5.11;44.28;99409.28;1774834;80;21108;-65
2021/12/29 07:08:58;;;;;;;5.63;4.53;;;;;;;5.16;44.29;99406.23;1850524;76;27445;-64
2021/12/29 07:11:25;;;;;;;5.00;4.10;;;;;;;5.11;44.37;99411.09;1812185;78;20941;-64
2021/12/29 07:13:51;;;;;;;5.75;4.22;;;;;;;5.12;44.72;99401.73;1794582;78;21825;-65
2021/12/29 07:16:18;;;;;;;5.05;4.08;;;;;;;5.13;44.83;99409.14;1812248;78;21027;-64
2021/12/29 07:18:48;;;;;;;5.55;4.30;;;;;;;5.12;44.87;99409.64;1793816;78;21524;-64
2021/12/29 07:21:13;;;;;;;5.45;4.17;;;;;;;5.14;44.87;99408.19;1815800;78;21525;-64
2021/12/29 07:23:40;;;;;;;5.92;4.37;;;;;;;5.14;44.84;99401.60;1793892;78;20895;-64
2021/12/29 07:26:06;;;;;;;6.08;4.20;;;;;;;5.15;44.81;99407.20;1817236;78;21132;-65
2021/12/29 07:28:33;;;;;;;5.95;4.12;;;;;;;5.16;44.79;99404.07;1810960;78;21678;-64
2021/12/29 07:30:59;;;;;;;5.50;4.70;;;;;;;5.16;44.79;99403.61;1793757;78;20930;-64
2021/12/29 07:33:26;;;;;;;6.62;4.28;;;;;;;5.16;44.75;99408.88;1819559;78;20997;-64
2021/12/29 07:35:52;;;;;;;6.60;4.28;;;;;;;5.16;44.71;99403.61;1794492;78;21544;-64
2021/12/29 07:38:19;;;;;;;6.12;4.37;;;;;;;5.17;44.68;99403.94;1793707;78;21136;-65
2021/12/29 07:40:45;;;;;;;5.97;4.90;;;;;;;5.17;44.69;99397.35;1793663;78;21025;-63
2021/12/29 07:43:12;;;;;;;6.92;4.20;;;;;;;5.19;44.68;99400.67;1793837;78;21022;-64
2021/12/29 07:45:42;;;;;;;7.30;4.72;;;;;;;5.19;44.66;99400.67;1806555;78;21069;-64
2021/12/29 07:48:09;;;;;;;6.70;4.55;;;;;;;5.19;44.62;99403.30;1824239;78;21118;-65
2021/12/29 07:50:36;;;;;;;5.20;4.20;;;;;;;5.21;44.61;99404.48;1806207;78;21100;-65
2021/12/29 07:53:04;;;;;;;4.95;4.08;;;;;;;5.20;44.59;99404.16;1804093;78;21005;-65
2021/12/29 07:55:31;;;;;;;4.92;4.12;;;;;;;5.21;44.55;99409.26;1793889;78;21033;-65
2021/12/29 07:57:58;;;;;;;7.20;4.70;;;;;;;5.22;44.53;99404.35;1793882;78;21498;-64
2021/12/29 08:00:25;;;;;;;5.72;4.08;;;;;;;5.22;44.52;99410.11;1815894;78;21080;-64
2021/12/29 08:02:51;;;;;;;5.55;4.17;;;;;;;5.23;44.52;99403.86;1793798;78;21217;-64
2021/12/29 08:05:18;;;;;;;5.15;3.92;;;;;;;5.24;44.50;99406.84;1801140;77;21633;-65
2021/12/29 08:07:45;;;;;;;6.00;4.70;;;;;;;5.24;44.49;99406.84;1802000;78;21026;-65
2021/12/29 08:10:11;;;;;;;4.92;4.20;;;;;;;5.25;44.47;99405.39;1793891;78;21005;-64
2021/12/29 08:12:38;;;;;;;5.87;5.12;;;;;;;5.26;44.47;99411.48;1815913;78;21040;-65
2021/12/29 08:15:06;;;;;;;5.87;4.47;;;;;;;5.27;44.45;99411.35;1815405;78;23207;-64
2021/12/29 08:17:33;;;;;;;5.30;4.10;;;;;;;5.28;44.42;99402.95;1809562;78;21057;-65
2021/12/29 08:20:00;;;;;;;7.12;5.00;;;;;;;5.28;44.40;99406.41;1799290;78;21041;-65
2021/12/29 08:22:27;;;;;;;5.20;3.77;;;;;;;5.29;44.38;99412.03;1806803;78;21060;-65
2021/12/29 08:24:53;;;;;;;4.92;4.17;;;;;;;5.30;44.37;99412.86;1803393;78;21044;-66
2021/12/29 08:27:19;;;;;;;5.08;3.98;;;;;;;5.30;44.37;99412.37;1795601;78;21093;-64
2021/12/29 08:29:46;;;;;;;5.28;4.28;;;;;;;5.31;44.37;99408.77;1793396;78;21476;-64
2021/12/29 08:32:13;;;;;;;6.75;4.83;;;;;;;5.31;44.34;99410.09;1802214;78;21033;-65
2021/12/29 08:34:41;;;;;;;5.35;4.22;;;;;;;5.34;44.34;99408.14;1805830;78;21052;-64
2021/12/29 08:37:07;;;;;;;6.00;4.25;;;;;;;5.34;44.33;99401.06;1800368;78;21025;-65
2021/12/29 08:39:35;;;;;;;6.25;5.05;;;;;;;5.36;44.32;99406.20;1808936;78;21462;-65
2021/12/29 08:42:02;;;;;;;5.87;4.47;;;;;;;5.35;44.30;99408.47;1797298;78;21064;-64
2021/12/29 08:44:28;;;;;;;5.55;4.45;;;;;;;5.36;44.29;99407.02;1807970;78;20997;-67
2021/12/29 08:46:54;;;;;;;4.85;4.20;;;;;;;5.37;44.28;99411.79;1824646;78;21025;-66
2021/12/29 08:49:21;;;;;;;6.08;4.92;;;;;;;5.37;44.28;99411.33;1805444;78;21025;-65
2021/12/29 08:51:47;;;;;;;5.62;4.50;;;;;;;5.38;44.27;99409.52;1804730;78;21504;-66
2021/12/29 08:54:14;;;;;;;6.60;5.03;;;;;;;5.38;44.27;99406.38;1794455;78;20994;-65
2021/12/29 08:56:40;;;;;;;6.20;5.00;;;;;;;5.39;44.24;99402.80;1806697;78;21221;-64
2021/12/29 08:59:07;;;;;;;5.85;5.08;;;;;;;5.40;44.24;99405.75;1802986;78;21052;-66
2021/12/29 09:01:34;;;;;;;7.08;5.85;;;;;;;5.41;44.23;99407.89;1814234;78;21049;-63
2021/12/29 09:04:00;;;;;;;6.62;4.62;;;;;;;5.42;44.23;99405.62;1793344;78;21141;-63
2021/12/29 09:06:28;;;;;;;6.92;4.90;;;;;;;5.42;44.21;99402.48;1807724;77;21034;-64
2021/12/29 09:08:57;;;;;;;5.60;4.58;;;;;;;5.43;44.21;99399.39;1805810;78;21037;-65
2021/12/29 09:11:23;;;;;;;5.92;5.17;;;;;;;5.41;44.21;99392.94;1793502;78;21086;-64
2021/12/29 09:13:49;;;;;;;7.67;4.87;;;;;;;5.42;44.21;99396.39;1794833;78;21016;-64
2021/12/29 09:16:16;;;;;;;8.00;5.45;;;;;;;5.42;44.20;99398.53;1794643;77;23345;-63
2021/12/29 09:18:42;;;;;;;6.92;4.95;;;;;;;5.43;44.20;99397.58;1823265;78;21064;-63
2021/12/29 09:21:14;;;;;;;6.10;4.58;;;;;;;5.44;44.21;99407.62;1804933;78;21072;-64
2021/12/29 09:23:38;;;;;;;6.72;5.12;;;;;;;5.44;44.21;99399.72;1801743;78;21037;-62
2021/12/29 09:26:05;;;;;;;5.97;4.87;;;;;;;5.43;44.22;99407.29;1806632;78;21080;-65
2021/12/29 09:28:32;;;;;;;6.15;4.67;;;;;;;5.43;44.22;99407.29;1814073;78;21140;-63
2021/12/29 09:30:59;;;;;;;6.95;5.35;;;;;;;5.42;44.25;99405.62;1793391;78;21069;-64
2021/12/29 09:33:25;;;;;;;6.15;4.83;;;;;;;5.42;44.26;99411.70;1818324;78;20986;-63
2021/12/29 09:35:57;;;;;;;6.47;5.42;;;;;;;5.42;44.25;99404.30;1811851;78;21041;-65
2021/12/29 09:38:21;;;;;;;6.70;4.83;;;;;;;5.42;44.26;99405.13;1800584;78;21012;-63
2021/12/29 09:40:49;;;;;;;6.83;5.08;;;;;;;5.43;44.26;99407.29;1825810;78;21048;-65
2021/12/29 09:43:17;;;;;;;7.53;4.95;;;;;;;5.42;44.27;99409.08;1824539;78;21021;-65
2021/12/29 09:45:45;;;;;;;7.05;5.65;;;;;;;5.43;44.27;99408.11;1805865;78;21056;-64
2021/12/29 09:48:12;;;;;;;6.37;5.60;;;;;;;5.44;44.28;99408.94;1823871;78;21061;-63
2021/12/29 09:50:39;;;;;;;7.53;5.12;;;;;;;5.45;44.27;99410.61;1804418;78;21543;-63
2021/12/29 09:53:06;;;;;;;6.28;5.37;;;;;;;5.45;44.28;99406.66;1801069;78;21090;-64
2021/12/29 09:55:33;;;;;;;5.90;5.28;;;;;;;5.44;44.27;99407.13;1799327;78;21097;-64
2021/12/29 09:57:59;;;;;;;6.72;5.12;;;;;;;5.45;44.27;99415.88;1809726;78;21001;-64
2021/12/29 10:00:33;;;;;;;5.97;5.37;;;;;;;5.45;44.27;99404.84;1797451;78;20986;-64
2021/12/29 10:03:01;;;;;;;;;;;;;;;5.46;44.25;99401.72;1796499;78;21002;-64
2021/12/29 10:05:28;;;;;;;7.40;5.55;;;;;;;5.47;44.28;99408.16;1815235;78;21160;-63
2021/12/29 10:08:17;;;;;;;6.75;5.05;;;;;;;5.46;44.27;99405.17;1798929;78;21049;-64
2021/12/29 10:10:48;;;;;;;7.08;5.70;;;;;;;5.46;44.28;99403.03;1804558;79;21049;-64
2021/12/29 10:13:15;;;;;;;6.95;5.75;;;;;;;5.46;44.29;99403.03;1782240;79;21034;-64
2021/12/29 10:15:45;;;;;;;7.65;5.65;;;;;;;5.47;44.27;99398.13;1808997;79;21493;-64
2021/12/29 10:18:18;;;;;;;6.97;5.90;;;;;;;5.47;44.27;99406.03;1796832;79;21768;-63
2021/12/29 10:21:00;;;;;;;7.58;5.28;;;;;;;5.48;44.27;99407.67;1782188;79;21548;-64
2021/12/29 10:23:38;;;;;;;8.18;6.25;;;;;;;5.48;44.26;99407.67;1795126;79;21175;-66
2021/12/29 10:26:14;;;;;;;7.17;5.60;;;;;;;5.49;44.30;99404.08;1794600;79;21029;-64
2021/12/29 10:28:44;;;;;;;6.33;5.50;;;;;;;5.48;44.28;99402.41;1782960;79;21525;-63
2021/12/29 10:31:24;;;;;;;7.25;5.78;;;;;;;5.48;44.28;99398.45;1782275;79;21044;-63
2021/12/29 10:33:56;;;;;;;6.35;5.60;;;;;;;5.48;44.31;99407.18;1805722;79;21025;-63
2021/12/29 10:36:35;;;;;;;6.97;5.17;;;;;;;5.48;44.28;99410.30;1782403;79;21293;-64
2021/12/29 10:39:10;;;;;;;7.58;6.12;;;;;;;5.49;44.29;99403.58;1782516;79;21061;-64
2021/12/29 10:41:58;;;;;;;7.20;5.60;;;;;;;5.50;44.28;99403.09;1797525;79;21009;-64
2021/12/29 10:44:37;;;;;;;7.42;6.08;;;;;;;5.50;44.28;99399.14;1761911;79;21720;-62
2021/12/29 10:47:26;;;;;;;7.50;5.83;;;;;;;5.51;44.28;99399.49;1803172;79;20993;-64
2021/12/29 10:50:07;;;;;;;7.87;6.15;;;;;;;5.49;44.27;99401.45;1800533;78;21006;-64
2021/12/29 10:52:50;;;;;;;9.28;6.33;;;;;;;5.50;44.30;99403.09;1805544;79;21542;-62
2021/12/29 10:55:25;;;;;;;8.88;6.62;;;;;;;5.50;44.30;99397.81;1791979;79;21567;-64
2021/12/29 10:58:13;;;;;;;9.10;5.75;;;;;;;5.51;44.30;99400.81;1789050;79;21114;-64
2021/12/29 11:00:43;;;;;;;8.40;6.70;;;;;;;5.51;44.32;99398.17;1788697;79;22035;-64
2021/12/29 11:03:13;;;;;;;8.03;6.50;;;;;;;5.52;44.29;99398.50;1782433;78;21064;-64
2021/12/29 11:05:47;;;;;;;8.23;6.62;;;;;;;5.53;44.30;99393.59;1790517;79;20994;-64
2021/12/29 11:08:11;;;;;;;7.70;5.95;;;;;;;5.54;44.31;99398.36;1785271;78;21120;-64
2021/12/29 11:10:40;;;;;;;10.10;7.22;;;;;;;5.54;44.29;99401.82;1796125;79;21490;-64
2021/12/29 11:13:07;;;;;;;8.20;6.97;;;;;;;5.54;44.28;99399.19;1799237;78;21622;-64
2021/12/29 11:15:41;;;;;;;8.58;6.80;;;;;;;5.56;44.26;99399.87;1802637;77;21073;-64
2021/12/29 11:18:11;;;;;;;8.10;6.60;;;;;;;5.55;44.27;99392.95;1799322;78;21024;-64
2021/12/29 11:20:39;;;;;;;7.97;6.75;;;;;;;5.57;44.26;99398.91;1790370;79;21018;-63
2021/12/29 11:23:15;;;;;;;7.37;6.37;;;;;;;5.58;44.25;99399.27;1806848;79;21901;-64
2021/12/29 11:25:43;;;;;;;8.73;6.85;;;;;;;5.60;44.23;99402.59;1812098;79;21014;-62
2021/12/29 11:28:28;;;;;;;8.88;7.00;;;;;;;5.59;44.23;99400.91;1810069;78;21063;-62
2021/12/29 11:30:57;;;;;;;10.75;6.55;;;;;;;5.60;44.21;99408.33;1790463;79;21486;-65
2021/12/29 11:33:29;;;;;;;10.28;7.37;;;;;;;5.61;44.21;99410.82;1802559;79;21468;-63
2021/12/29 11:35:56;;;;;;;8.20;6.70;;;;;;;5.62;44.20;99405.91;1785371;79;21099;-65
2021/12/29 11:38:25;;;;;;;8.78;6.90;;;;;;;5.62;44.20;99404.59;1786511;77;21029;-64
2021/12/29 11:40:57;;;;;;;8.85;6.75;;;;;;;5.64;44.19;99405.27;1743970;79;21505;-68
2021/12/29 11:43:24;;;;;;;9.70;7.60;;;;;;;5.65;44.20;99407.41;1808830;79;21002;-63
2021/12/29 11:45:55;;;;;;;7.78;6.45;;;;;;;5.65;44.20;99413.51;1803025;79;21038;-64
2021/12/29 11:48:23;;;;;;;8.95;7.53;;;;;;;5.65;44.16;99410.88;1791531;78;21112;-63
2021/12/29 11:50:54;;;;;;;8.65;7.15;;;;;;;5.67;44.14;99411.55;1793634;79;21173;-64
2021/12/29 11:53:49;;;;;;;8.28;6.67;;;;;;;5.68;44.13;99411.91;1792212;78;21014;-62
2021/12/29 11:56:19;;;;;;;9.68;7.20;;;;;;;5.69;44.13;99411.41;1782523;79;21053;-62